sensor_id;sensor_type;location;lat;lon;timestamp;P1;durP1;ratioP1;P2;durP2;ratioP2
45354;SDS011;31091;48.758;9.150;2023-05-29T00:01:57;10.05;;;4.95;;
45354;SDS011;31091;48.758;9.150;2023-05-29T00:04:43;10.55;;;5.05;;
45354;SDS011;31091;48.758;9.150;2023-05-29T00:07:31;8.65;;;5.07;;
45354;SDS011;31091;48.758;9.150;2023-05-29T00:10:17;8.60;;;5.05;;
45354;SDS011;31091;48.758;9.150;2023-05-29T00:13:03;9.73;;;4.72;;
45354;SDS011;31091;48.758;9.150;2023-05-29T00:15:48;8.88;;;4.90;;
45354;SDS011;31091;48.758;9.150;2023-05-29T00:18:33;9.88;;;4.75;;
45354;SDS011;31091;48.758;9.150;2023-05-29T00:21:19;7.68;;;4.70;;
45354;SDS011;31091;48.758;9.150;2023-05-29T00:24:05;8.80;;;4.50;;
45354;SDS011;31091;48.758;9.150;2023-05-29T00:26:50;8.50;;;4.78;;
45354;SDS011;31091;48.758;9.150;2023-05-29T00:29:36;8.20;;;4.53;;
45354;SDS011;31091;48.758;9.150;2023-05-29T00:32:21;11.20;;;5.05;;
45354;SDS011;31091;48.758;9.150;2023-05-29T00:35:06;6.88;;;4.28;;
45354;SDS011;31091;48.758;9.150;2023-05-29T00:37:52;10.65;;;4.50;;
45354;SDS011;31091;48.758;9.150;2023-05-29T00:40:37;7.45;;;4.25;;
45354;SDS011;31091;48.758;9.150;2023-05-29T00:43:24;10.05;;;4.60;;
45354;SDS011;31091;48.758;9.150;2023-05-29T00:46:09;10.48;;;5.15;;
45354;SDS011;31091;48.758;9.150;2023-05-29T00:48:57;11.57;;;4.95;;
45354;SDS011;31091;48.758;9.150;2023-05-29T00:51:43;7.25;;;4.53;;
45354;SDS011;31091;48.758;9.150;2023-05-29T00:54:29;8.57;;;4.20;;
45354;SDS011;31091;48.758;9.150;2023-05-29T00:57:14;9.18;;;4.18;;
45354;SDS011;31091;48.758;9.150;2023-05-29T01:00:05;9.18;;;4.63;;
45354;SDS011;31091;48.758;9.150;2023-05-29T01:02:52;11.05;;;4.45;;
45354;SDS011;31091;48.758;9.150;2023-05-29T01:05:38;7.78;;;4.10;;
45354;SDS011;31091;48.758;9.150;2023-05-29T01:08:23;12.10;;;4.75;;
45354;SDS011;31091;48.758;9.150;2023-05-29T01:11:20;8.65;;;4.70;;
45354;SDS011;31091;48.758;9.150;2023-05-29T01:16:56;9.25;;;4.80;;
45354;SDS011;31091;48.758;9.150;2023-05-29T01:28:39;9.77;;;4.32;;
45354;SDS011;31091;48.758;9.150;2023-05-29T01:31:26;8.60;;;4.47;;
45354;SDS011;31091;48.758;9.150;2023-05-29T01:34:11;7.70;;;4.15;;
45354;SDS011;31091;48.758;9.150;2023-05-29T01:36:57;10.38;;;4.57;;
45354;SDS011;31091;48.758;9.150;2023-05-29T01:39:42;8.30;;;4.35;;
45354;SDS011;31091;48.758;9.150;2023-05-29T01:42:27;10.57;;;4.50;;
45354;SDS011;31091;48.758;9.150;2023-05-29T01:45:14;13.00;;;4.90;;
45354;SDS011;31091;48.758;9.150;2023-05-29T01:48:01;14.05;;;4.70;;
45354;SDS011;31091;48.758;9.150;2023-05-29T01:50:50;10.93;;;4.43;;
45354;SDS011;31091;48.758;9.150;2023-05-29T01:53:35;8.80;;;4.35;;
45354;SDS011;31091;48.758;9.150;2023-05-29T01:56:21;8.45;;;4.68;;
45354;SDS011;31091;48.758;9.150;2023-05-29T01:59:06;13.02;;;4.32;;
45354;SDS011;31091;48.758;9.150;2023-05-29T02:01:52;11.93;;;5.65;;
45354;SDS011;31091;48.758;9.150;2023-05-29T02:04:37;6.57;;;4.20;;
45354;SDS011;31091;48.758;9.150;2023-05-29T02:07:23;8.68;;;4.75;;
45354;SDS011;31091;48.758;9.150;2023-05-29T02:10:08;11.13;;;4.78;;
45354;SDS011;31091;48.758;9.150;2023-05-29T02:12:53;7.53;;;3.88;;
45354;SDS011;31091;48.758;9.150;2023-05-29T02:15:39;8.68;;;3.80;;
45354;SDS011;31091;48.758;9.150;2023-05-29T02:18:24;9.77;;;4.43;;
45354;SDS011;31091;48.758;9.150;2023-05-29T02:21:10;7.82;;;4.18;;
45354;SDS011;31091;48.758;9.150;2023-05-29T02:23:56;8.10;;;4.80;;
45354;SDS011;31091;48.758;9.150;2023-05-29T02:26:41;10.20;;;3.83;;
45354;SDS011;31091;48.758;9.150;2023-05-29T02:29:27;8.02;;;4.22;;
45354;SDS011;31091;48.758;9.150;2023-05-29T02:32:12;9.98;;;4.60;;
45354;SDS011;31091;48.758;9.150;2023-05-29T02:34:57;10.15;;;4.28;;
45354;SDS011;31091;48.758;9.150;2023-05-29T02:37:42;7.68;;;4.25;;
45354;SDS011;31091;48.758;9.150;2023-05-29T02:40:28;10.82;;;4.35;;
45354;SDS011;31091;48.758;9.150;2023-05-29T02:43:13;7.95;;;4.20;;
45354;SDS011;31091;48.758;9.150;2023-05-29T02:45:59;7.10;;;3.92;;
45354;SDS011;31091;48.758;9.150;2023-05-29T02:48:44;5.90;;;3.42;;
45354;SDS011;31091;48.758;9.150;2023-05-29T02:51:30;10.15;;;4.40;;
45354;SDS011;31091;48.758;9.150;2023-05-29T02:54:17;8.98;;;4.88;;
45354;SDS011;31091;48.758;9.150;2023-05-29T02:57:02;6.65;;;4.20;;
45354;SDS011;31091;48.758;9.150;2023-05-29T02:59:48;8.93;;;3.90;;
45354;SDS011;31091;48.758;9.150;2023-05-29T03:02:33;9.73;;;4.28;;
45354;SDS011;31091;48.758;9.150;2023-05-29T03:05:19;7.63;;;3.60;;
45354;SDS011;31091;48.758;9.150;2023-05-29T03:08:05;11.30;;;4.72;;
45354;SDS011;31091;48.758;9.150;2023-05-29T03:10:50;8.18;;;3.88;;
45354;SDS011;31091;48.758;9.150;2023-05-29T03:13:37;8.60;;;4.30;;
45354;SDS011;31091;48.758;9.150;2023-05-29T03:16:22;8.93;;;4.50;;
45354;SDS011;31091;48.758;9.150;2023-05-29T03:19:07;9.25;;;4.05;;
45354;SDS011;31091;48.758;9.150;2023-05-29T03:21:53;6.88;;;4.05;;
45354;SDS011;31091;48.758;9.150;2023-05-29T03:24:38;9.30;;;3.92;;
45354;SDS011;31091;48.758;9.150;2023-05-29T03:27:23;7.50;;;4.10;;
45354;SDS011;31091;48.758;9.150;2023-05-29T03:30:08;7.18;;;3.75;;
45354;SDS011;31091;48.758;9.150;2023-05-29T03:32:54;9.95;;;4.45;;
45354;SDS011;31091;48.758;9.150;2023-05-29T03:35:39;7.45;;;3.97;;
45354;SDS011;31091;48.758;9.150;2023-05-29T03:38:25;10.77;;;4.07;;
45354;SDS011;31091;48.758;9.150;2023-05-29T03:41:10;6.38;;;3.40;;
45354;SDS011;31091;48.758;9.150;2023-05-29T03:43:55;7.00;;;3.65;;
45354;SDS011;31091;48.758;9.150;2023-05-29T03:46:41;5.43;;;3.53;;
45354;SDS011;31091;48.758;9.150;2023-05-29T03:49:26;7.53;;;3.78;;
45354;SDS011;31091;48.758;9.150;2023-05-29T03:52:11;8.80;;;3.92;;
45354;SDS011;31091;48.758;9.150;2023-05-29T03:54:56;11.15;;;4.22;;
45354;SDS011;31091;48.758;9.150;2023-05-29T03:57:41;10.77;;;4.18;;
45354;SDS011;31091;48.758;9.150;2023-05-29T04:00:27;10.00;;;4.28;;
45354;SDS011;31091;48.758;9.150;2023-05-29T04:03:12;11.00;;;4.50;;
45354;SDS011;31091;48.758;9.150;2023-05-29T04:05:57;10.50;;;3.83;;
45354;SDS011;31091;48.758;9.150;2023-05-29T04:08:42;12.95;;;3.83;;
45354;SDS011;31091;48.758;9.150;2023-05-29T04:11:27;8.90;;;4.53;;
45354;SDS011;31091;48.758;9.150;2023-05-29T04:14:13;9.38;;;4.43;;
45354;SDS011;31091;48.758;9.150;2023-05-29T04:16:58;8.18;;;4.20;;
45354;SDS011;31091;48.758;9.150;2023-05-29T04:19:43;6.78;;;3.78;;
45354;SDS011;31091;48.758;9.150;2023-05-29T04:22:28;7.40;;;3.45;;
45354;SDS011;31091;48.758;9.150;2023-05-29T04:25:13;9.68;;;4.22;;
45354;SDS011;31091;48.758;9.150;2023-05-29T04:28:00;8.02;;;3.80;;
45354;SDS011;31091;48.758;9.150;2023-05-29T04:30:47;11.30;;;4.90;;
45354;SDS011;31091;48.758;9.150;2023-05-29T04:33:32;7.35;;;4.13;;
45354;SDS011;31091;48.758;9.150;2023-05-29T04:36:24;6.55;;;3.75;;
45354;SDS011;31091;48.758;9.150;2023-05-29T04:39:10;10.10;;;4.67;;
45354;SDS011;31091;48.758;9.150;2023-05-29T04:41:55;7.70;;;3.70;;
45354;SDS011;31091;48.758;9.150;2023-05-29T04:44:43;7.93;;;4.03;;
45354;SDS011;31091;48.758;9.150;2023-05-29T04:47:28;8.88;;;4.72;;
45354;SDS011;31091;48.758;9.150;2023-05-29T04:50:14;8.00;;;3.58;;
45354;SDS011;31091;48.758;9.150;2023-05-29T04:52:59;10.10;;;3.78;;
45354;SDS011;31091;48.758;9.150;2023-05-29T04:55:45;9.98;;;4.32;;
45354;SDS011;31091;48.758;9.150;2023-05-29T04:58:30;11.00;;;4.55;;
45354;SDS011;31091;48.758;9.150;2023-05-29T05:01:15;9.40;;;4.32;;
45354;SDS011;31091;48.758;9.150;2023-05-29T05:04:00;9.55;;;4.45;;
45354;SDS011;31091;48.758;9.150;2023-05-29T05:06:46;8.95;;;4.57;;
45354;SDS011;31091;48.758;9.150;2023-05-29T05:09:31;7.78;;;3.85;;
45354;SDS011;31091;48.758;9.150;2023-05-29T05:12:16;7.05;;;4.28;;
45354;SDS011;31091;48.758;9.150;2023-05-29T05:15:02;9.80;;;5.22;;
45354;SDS011;31091;48.758;9.150;2023-05-29T05:17:47;8.02;;;4.70;;
45354;SDS011;31091;48.758;9.150;2023-05-29T05:20:32;7.53;;;4.20;;
45354;SDS011;31091;48.758;9.150;2023-05-29T05:23:17;8.30;;;4.28;;
45354;SDS011;31091;48.758;9.150;2023-05-29T05:26:03;7.38;;;3.85;;
45354;SDS011;31091;48.758;9.150;2023-05-29T05:28:48;8.52;;;4.40;;
45354;SDS011;31091;48.758;9.150;2023-05-29T05:31:33;6.45;;;3.60;;
45354;SDS011;31091;48.758;9.150;2023-05-29T05:34:18;8.63;;;4.13;;
45354;SDS011;31091;48.758;9.150;2023-05-29T05:37:04;8.60;;;4.00;;
45354;SDS011;31091;48.758;9.150;2023-05-29T05:39:52;5.65;;;3.38;;
45354;SDS011;31091;48.758;9.150;2023-05-29T05:42:38;10.80;;;4.20;;
45354;SDS011;31091;48.758;9.150;2023-05-29T05:45:23;9.23;;;4.30;;
45354;SDS011;31091;48.758;9.150;2023-05-29T05:48:08;7.45;;;3.65;;
45354;SDS011;31091;48.758;9.150;2023-05-29T05:50:54;15.82;;;5.53;;
45354;SDS011;31091;48.758;9.150;2023-05-29T05:53:39;10.10;;;4.55;;
45354;SDS011;31091;48.758;9.150;2023-05-29T05:56:24;7.97;;;4.13;;
45354;SDS011;31091;48.758;9.150;2023-05-29T05:59:11;9.05;;;3.92;;
45354;SDS011;31091;48.758;9.150;2023-05-29T06:01:56;8.05;;;4.32;;
45354;SDS011;31091;48.758;9.150;2023-05-29T06:04:41;7.13;;;3.78;;
45354;SDS011;31091;48.758;9.150;2023-05-29T06:07:26;7.53;;;4.10;;
45354;SDS011;31091;48.758;9.150;2023-05-29T06:10:12;10.45;;;4.22;;
45354;SDS011;31091;48.758;9.150;2023-05-29T06:12:58;9.27;;;3.70;;
45354;SDS011;31091;48.758;9.150;2023-05-29T06:15:43;7.93;;;4.22;;
45354;SDS011;31091;48.758;9.150;2023-05-29T06:18:28;9.05;;;4.63;;
45354;SDS011;31091;48.758;9.150;2023-05-29T06:21:14;7.38;;;3.95;;
45354;SDS011;31091;48.758;9.150;2023-05-29T06:23:59;8.40;;;4.50;;
45354;SDS011;31091;48.758;9.150;2023-05-29T06:26:44;10.77;;;4.80;;
45354;SDS011;31091;48.758;9.150;2023-05-29T06:29:29;9.13;;;4.22;;
45354;SDS011;31091;48.758;9.150;2023-05-29T06:32:15;7.38;;;3.90;;
45354;SDS011;31091;48.758;9.150;2023-05-29T06:35:01;9.85;;;4.75;;
45354;SDS011;31091;48.758;9.150;2023-05-29T06:37:46;7.35;;;4.05;;
45354;SDS011;31091;48.758;9.150;2023-05-29T06:40:31;9.52;;;4.70;;
45354;SDS011;31091;48.758;9.150;2023-05-29T06:43:16;9.52;;;5.13;;
45354;SDS011;31091;48.758;9.150;2023-05-29T06:46:02;8.80;;;4.88;;
45354;SDS011;31091;48.758;9.150;2023-05-29T06:48:47;8.80;;;4.35;;
45354;SDS011;31091;48.758;9.150;2023-05-29T06:51:33;8.50;;;4.90;;
45354;SDS011;31091;48.758;9.150;2023-05-29T06:54:18;9.80;;;4.82;;
45354;SDS011;31091;48.758;9.150;2023-05-29T06:57:03;8.27;;;4.30;;
45354;SDS011;31091;48.758;9.150;2023-05-29T06:59:48;9.35;;;4.78;;
45354;SDS011;31091;48.758;9.150;2023-05-29T07:02:34;10.70;;;5.00;;
45354;SDS011;31091;48.758;9.150;2023-05-29T07:05:19;7.47;;;4.20;;
45354;SDS011;31091;48.758;9.150;2023-05-29T07:08:04;9.68;;;5.07;;
45354;SDS011;31091;48.758;9.150;2023-05-29T07:10:49;9.85;;;4.85;;
45354;SDS011;31091;48.758;9.150;2023-05-29T07:13:35;9.50;;;4.95;;
45354;SDS011;31091;48.758;9.150;2023-05-29T07:16:20;8.10;;;4.43;;
45354;SDS011;31091;48.758;9.150;2023-05-29T07:19:06;12.50;;;5.05;;
45354;SDS011;31091;48.758;9.150;2023-05-29T07:21:51;8.52;;;4.00;;
45354;SDS011;31091;48.758;9.150;2023-05-29T07:24:36;8.68;;;4.03;;
45354;SDS011;31091;48.758;9.150;2023-05-29T07:27:22;9.20;;;4.32;;
45354;SDS011;31091;48.758;9.150;2023-05-29T07:30:07;11.13;;;4.57;;
45354;SDS011;31091;48.758;9.150;2023-05-29T07:32:52;9.30;;;4.57;;
45354;SDS011;31091;48.758;9.150;2023-05-29T07:35:38;10.10;;;4.55;;
45354;SDS011;31091;48.758;9.150;2023-05-29T07:38:23;7.63;;;4.43;;
45354;SDS011;31091;48.758;9.150;2023-05-29T07:41:08;7.63;;;4.68;;
45354;SDS011;31091;48.758;9.150;2023-05-29T07:43:53;8.05;;;4.22;;
45354;SDS011;31091;48.758;9.150;2023-05-29T07:46:40;8.30;;;4.28;;
45354;SDS011;31091;48.758;9.150;2023-05-29T07:49:25;7.30;;;4.20;;
45354;SDS011;31091;48.758;9.150;2023-05-29T07:52:10;8.93;;;4.55;;
45354;SDS011;31091;48.758;9.150;2023-05-29T07:54:56;10.85;;;5.20;;
45354;SDS011;31091;48.758;9.150;2023-05-29T07:57:41;11.10;;;4.65;;
45354;SDS011;31091;48.758;9.150;2023-05-29T08:00:27;12.50;;;5.28;;
45354;SDS011;31091;48.758;9.150;2023-05-29T08:03:13;9.52;;;4.07;;
45354;SDS011;31091;48.758;9.150;2023-05-29T08:05:58;8.32;;;4.32;;
45354;SDS011;31091;48.758;9.150;2023-05-29T08:08:44;6.55;;;3.85;;
45354;SDS011;31091;48.758;9.150;2023-05-29T08:11:29;7.50;;;4.15;;
45354;SDS011;31091;48.758;9.150;2023-05-29T08:14:14;9.57;;;4.50;;
45354;SDS011;31091;48.758;9.150;2023-05-29T08:17:00;7.80;;;4.43;;
45354;SDS011;31091;48.758;9.150;2023-05-29T08:19:45;8.43;;;4.80;;
45354;SDS011;31091;48.758;9.150;2023-05-29T08:22:32;12.18;;;5.20;;
45354;SDS011;31091;48.758;9.150;2023-05-29T08:25:18;11.20;;;4.82;;
45354;SDS011;31091;48.758;9.150;2023-05-29T08:28:04;9.23;;;4.35;;
45354;SDS011;31091;48.758;9.150;2023-05-29T08:30:49;12.30;;;4.60;;
45354;SDS011;31091;48.758;9.150;2023-05-29T08:33:34;9.50;;;4.78;;
45354;SDS011;31091;48.758;9.150;2023-05-29T08:36:21;7.75;;;4.35;;
45354;SDS011;31091;48.758;9.150;2023-05-29T08:39:07;9.07;;;4.63;;
45354;SDS011;31091;48.758;9.150;2023-05-29T08:44:43;9.68;;;4.75;;
45354;SDS011;31091;48.758;9.150;2023-05-29T08:47:32;8.55;;;4.32;;
45354;SDS011;31091;48.758;9.150;2023-05-29T08:50:19;9.40;;;4.63;;
45354;SDS011;31091;48.758;9.150;2023-05-29T08:53:04;9.43;;;4.55;;
45354;SDS011;31091;48.758;9.150;2023-05-29T08:55:51;7.70;;;4.57;;
45354;SDS011;31091;48.758;9.150;2023-05-29T08:58:37;9.38;;;4.95;;
45354;SDS011;31091;48.758;9.150;2023-05-29T09:01:23;9.50;;;4.35;;
45354;SDS011;31091;48.758;9.150;2023-05-29T09:04:08;7.10;;;4.43;;
45354;SDS011;31091;48.758;9.150;2023-05-29T09:06:53;11.60;;;4.22;;
45354;SDS011;31091;48.758;9.150;2023-05-29T09:09:40;8.10;;;4.85;;
45354;SDS011;31091;48.758;9.150;2023-05-29T09:12:26;12.35;;;4.90;;
45354;SDS011;31091;48.758;9.150;2023-05-29T09:15:18;10.43;;;4.55;;
45354;SDS011;31091;48.758;9.150;2023-05-29T09:18:03;9.05;;;4.70;;
45354;SDS011;31091;48.758;9.150;2023-05-29T09:20:49;9.73;;;4.47;;
45354;SDS011;31091;48.758;9.150;2023-05-29T09:23:34;8.25;;;4.40;;
45354;SDS011;31091;48.758;9.150;2023-05-29T09:26:21;12.80;;;5.22;;
45354;SDS011;31091;48.758;9.150;2023-05-29T09:29:06;8.85;;;4.63;;
45354;SDS011;31091;48.758;9.150;2023-05-29T09:31:53;10.80;;;4.82;;
45354;SDS011;31091;48.758;9.150;2023-05-29T09:34:38;7.15;;;3.80;;
45354;SDS011;31091;48.758;9.150;2023-05-29T09:37:24;10.68;;;4.43;;
45354;SDS011;31091;48.758;9.150;2023-05-29T09:40:10;6.47;;;3.95;;
45354;SDS011;31091;48.758;9.150;2023-05-29T09:42:55;6.90;;;3.90;;
45354;SDS011;31091;48.758;9.150;2023-05-29T09:45:41;9.63;;;4.88;;
45354;SDS011;31091;48.758;9.150;2023-05-29T09:48:27;8.00;;;4.30;;
45354;SDS011;31091;48.758;9.150;2023-05-29T09:51:18;8.75;;;4.63;;
45354;SDS011;31091;48.758;9.150;2023-05-29T09:54:14;12.80;;;4.90;;
45354;SDS011;31091;48.758;9.150;2023-05-29T09:57:00;10.32;;;5.03;;
45354;SDS011;31091;48.758;9.150;2023-05-29T09:59:46;8.43;;;4.72;;
45354;SDS011;31091;48.758;9.150;2023-05-29T10:02:36;10.63;;;4.78;;
45354;SDS011;31091;48.758;9.150;2023-05-29T10:05:22;8.10;;;4.53;;
45354;SDS011;31091;48.758;9.150;2023-05-29T10:08:08;10.05;;;4.40;;
45354;SDS011;31091;48.758;9.150;2023-05-29T10:10:56;7.80;;;3.80;;
45354;SDS011;31091;48.758;9.150;2023-05-29T10:13:44;6.50;;;3.85;;
45354;SDS011;31091;48.758;9.150;2023-05-29T10:16:33;7.85;;;3.92;;
45354;SDS011;31091;48.758;9.150;2023-05-29T10:19:24;7.28;;;4.20;;
45354;SDS011;31091;48.758;9.150;2023-05-29T10:22:10;7.20;;;3.70;;
45354;SDS011;31091;48.758;9.150;2023-05-29T10:24:55;8.27;;;4.72;;
45354;SDS011;31091;48.758;9.150;2023-05-29T10:27:41;11.48;;;4.82;;
45354;SDS011;31091;48.758;9.150;2023-05-29T10:30:28;9.45;;;4.57;;
45354;SDS011;31091;48.758;9.150;2023-05-29T10:36:21;8.85;;;3.50;;
45354;SDS011;31091;48.758;9.150;2023-05-29T10:39:09;5.72;;;3.45;;
45354;SDS011;31091;48.758;9.150;2023-05-29T10:41:54;7.75;;;4.30;;
45354;SDS011;31091;48.758;9.150;2023-05-29T10:44:43;8.00;;;4.85;;
45354;SDS011;31091;48.758;9.150;2023-05-29T10:47:28;9.57;;;4.13;;
45354;SDS011;31091;48.758;9.150;2023-05-29T10:50:14;9.57;;;5.25;;
45354;SDS011;31091;48.758;9.150;2023-05-29T10:53:23;8.30;;;3.88;;
45354;SDS011;31091;48.758;9.150;2023-05-29T10:56:14;6.75;;;3.97;;
45354;SDS011;31091;48.758;9.150;2023-05-29T10:59:00;7.15;;;3.95;;
45354;SDS011;31091;48.758;9.150;2023-05-29T11:01:48;9.25;;;3.83;;
45354;SDS011;31091;48.758;9.150;2023-05-29T11:04:37;9.40;;;4.10;;
45354;SDS011;31091;48.758;9.150;2023-05-29T11:07:32;8.05;;;4.18;;
45354;SDS011;31091;48.758;9.150;2023-05-29T11:10:17;9.40;;;4.05;;
45354;SDS011;31091;48.758;9.150;2023-05-29T11:13:02;9.40;;;4.00;;
45354;SDS011;31091;48.758;9.150;2023-05-29T11:16:03;7.72;;;3.58;;
45354;SDS011;31091;48.758;9.150;2023-05-29T11:18:49;10.30;;;3.72;;
45354;SDS011;31091;48.758;9.150;2023-05-29T11:22:19;8.88;;;3.97;;
45354;SDS011;31091;48.758;9.150;2023-05-29T11:24:43;7.68;;;3.88;;
45354;SDS011;31091;48.758;9.150;2023-05-29T11:27:29;5.18;;;3.05;;
45354;SDS011;31091;48.758;9.150;2023-05-29T11:30:14;7.43;;;3.40;;
45354;SDS011;31091;48.758;9.150;2023-05-29T11:33:00;7.00;;;3.03;;
45354;SDS011;31091;48.758;9.150;2023-05-29T11:35:46;9.80;;;4.05;;
45354;SDS011;31091;48.758;9.150;2023-05-29T11:38:33;7.80;;;4.30;;
45354;SDS011;31091;48.758;9.150;2023-05-29T11:41:19;7.82;;;3.78;;
45354;SDS011;31091;48.758;9.150;2023-05-29T11:44:04;7.50;;;3.15;;
45354;SDS011;31091;48.758;9.150;2023-05-29T11:47:03;5.93;;;4.03;;
45354;SDS011;31091;48.758;9.150;2023-05-29T11:49:49;6.18;;;3.25;;
45354;SDS011;31091;48.758;9.150;2023-05-29T11:52:34;9.50;;;3.95;;
45354;SDS011;31091;48.758;9.150;2023-05-29T11:55:20;8.93;;;3.50;;
45354;SDS011;31091;48.758;9.150;2023-05-29T11:58:06;9.45;;;4.00;;
45354;SDS011;31091;48.758;9.150;2023-05-29T12:00:51;6.90;;;3.63;;
45354;SDS011;31091;48.758;9.150;2023-05-29T12:03:37;9.20;;;3.92;;
45354;SDS011;31091;48.758;9.150;2023-05-29T12:06:33;8.27;;;3.67;;
45354;SDS011;31091;48.758;9.150;2023-05-29T12:12:11;7.65;;;4.45;;
45354;SDS011;31091;48.758;9.150;2023-05-29T12:14:56;9.23;;;4.80;;
45354;SDS011;31091;48.758;9.150;2023-05-29T12:17:41;10.23;;;5.05;;
45354;SDS011;31091;48.758;9.150;2023-05-29T12:20:27;7.75;;;4.00;;
45354;SDS011;31091;48.758;9.150;2023-05-29T12:23:12;6.30;;;3.58;;
45354;SDS011;31091;48.758;9.150;2023-05-29T12:25:58;8.90;;;4.22;;
45354;SDS011;31091;48.758;9.150;2023-05-29T12:28:44;5.10;;;2.97;;
45354;SDS011;31091;48.758;9.150;2023-05-29T12:31:29;7.68;;;3.50;;
45354;SDS011;31091;48.758;9.150;2023-05-29T12:34:15;8.00;;;3.88;;
45354;SDS011;31091;48.758;9.150;2023-05-29T12:37:05;11.55;;;4.35;;
45354;SDS011;31091;48.758;9.150;2023-05-29T12:43:14;7.78;;;3.63;;
45354;SDS011;31091;48.758;9.150;2023-05-29T12:46:01;6.10;;;3.40;;
45354;SDS011;31091;48.758;9.150;2023-05-29T12:48:46;6.15;;;3.20;;
45354;SDS011;31091;48.758;9.150;2023-05-29T12:51:31;8.18;;;3.38;;
45354;SDS011;31091;48.758;9.150;2023-05-29T12:54:16;9.75;;;3.33;;
45354;SDS011;31091;48.758;9.150;2023-05-29T12:57:02;7.82;;;3.40;;
45354;SDS011;31091;48.758;9.150;2023-05-29T12:59:47;6.10;;;3.35;;
45354;SDS011;31091;48.758;9.150;2023-05-29T13:02:32;7.47;;;3.33;;
45354;SDS011;31091;48.758;9.150;2023-05-29T13:05:17;5.97;;;3.55;;
45354;SDS011;31091;48.758;9.150;2023-05-29T13:08:03;5.93;;;3.53;;
45354;SDS011;31091;48.758;9.150;2023-05-29T13:10:52;6.03;;;3.13;;
45354;SDS011;31091;48.758;9.150;2023-05-29T13:13:37;5.32;;;2.97;;
45354;SDS011;31091;48.758;9.150;2023-05-29T13:16:23;7.05;;;3.80;;
45354;SDS011;31091;48.758;9.150;2023-05-29T13:19:08;7.07;;;3.80;;
45354;SDS011;31091;48.758;9.150;2023-05-29T13:21:53;5.68;;;3.47;;
45354;SDS011;31091;48.758;9.150;2023-05-29T13:24:38;9.70;;;3.88;;
45354;SDS011;31091;48.758;9.150;2023-05-29T13:27:24;5.93;;;3.42;;
45354;SDS011;31091;48.758;9.150;2023-05-29T13:30:09;8.52;;;3.60;;
45354;SDS011;31091;48.758;9.150;2023-05-29T13:32:55;7.50;;;3.67;;
45354;SDS011;31091;48.758;9.150;2023-05-29T13:35:40;6.32;;;3.22;;
45354;SDS011;31091;48.758;9.150;2023-05-29T13:38:25;6.57;;;3.70;;
45354;SDS011;31091;48.758;9.150;2023-05-29T13:41:11;11.73;;;4.07;;
45354;SDS011;31091;48.758;9.150;2023-05-29T13:43:56;4.90;;;3.45;;
45354;SDS011;31091;48.758;9.150;2023-05-29T13:46:41;7.97;;;3.92;;
45354;SDS011;31091;48.758;9.150;2023-05-29T13:49:27;5.85;;;3.40;;
45354;SDS011;31091;48.758;9.150;2023-05-29T13:52:12;7.20;;;3.30;;
45354;SDS011;31091;48.758;9.150;2023-05-29T13:54:57;8.20;;;3.38;;
45354;SDS011;31091;48.758;9.150;2023-05-29T13:57:45;8.63;;;3.38;;
45354;SDS011;31091;48.758;9.150;2023-05-29T14:00:30;6.10;;;3.35;;
45354;SDS011;31091;48.758;9.150;2023-05-29T14:03:15;5.05;;;3.35;;
45354;SDS011;31091;48.758;9.150;2023-05-29T14:06:01;5.15;;;3.17;;
45354;SDS011;31091;48.758;9.150;2023-05-29T14:08:50;6.15;;;3.28;;
45354;SDS011;31091;48.758;9.150;2023-05-29T14:11:35;4.25;;;2.97;;
45354;SDS011;31091;48.758;9.150;2023-05-29T14:14:22;6.63;;;3.88;;
45354;SDS011;31091;48.758;9.150;2023-05-29T14:17:07;5.53;;;3.50;;
45354;SDS011;31091;48.758;9.150;2023-05-29T14:19:52;9.73;;;3.70;;
45354;SDS011;31091;48.758;9.150;2023-05-29T14:22:37;4.82;;;3.40;;
45354;SDS011;31091;48.758;9.150;2023-05-29T14:25:23;6.75;;;3.58;;
45354;SDS011;31091;48.758;9.150;2023-05-29T14:28:08;6.78;;;3.75;;
45354;SDS011;31091;48.758;9.150;2023-05-29T14:30:53;10.20;;;4.45;;
45354;SDS011;31091;48.758;9.150;2023-05-29T14:33:39;7.55;;;3.60;;
45354;SDS011;31091;48.758;9.150;2023-05-29T14:36:24;14.45;;;4.00;;
45354;SDS011;31091;48.758;9.150;2023-05-29T14:39:09;4.57;;;3.13;;
45354;SDS011;31091;48.758;9.150;2023-05-29T14:41:55;6.45;;;3.78;;
45354;SDS011;31091;48.758;9.150;2023-05-29T14:44:40;6.97;;;3.47;;
45354;SDS011;31091;48.758;9.150;2023-05-29T14:47:25;6.18;;;3.72;;
45354;SDS011;31091;48.758;9.150;2023-05-29T14:50:10;6.03;;;3.42;;
45354;SDS011;31091;48.758;9.150;2023-05-29T14:52:56;5.85;;;3.03;;
45354;SDS011;31091;48.758;9.150;2023-05-29T14:55:42;4.93;;;3.33;;
45354;SDS011;31091;48.758;9.150;2023-05-29T14:58:27;5.40;;;3.35;;
45354;SDS011;31091;48.758;9.150;2023-05-29T15:01:12;5.28;;;2.95;;
45354;SDS011;31091;48.758;9.150;2023-05-29T15:03:57;6.10;;;3.28;;
45354;SDS011;31091;48.758;9.150;2023-05-29T15:06:43;7.28;;;3.95;;
45354;SDS011;31091;48.758;9.150;2023-05-29T15:09:28;6.53;;;3.63;;
45354;SDS011;31091;48.758;9.150;2023-05-29T15:12:14;8.50;;;3.47;;
45354;SDS011;31091;48.758;9.150;2023-05-29T15:14:59;7.30;;;3.33;;
45354;SDS011;31091;48.758;9.150;2023-05-29T15:17:44;5.57;;;3.22;;
45354;SDS011;31091;48.758;9.150;2023-05-29T15:20:31;6.70;;;3.72;;
45354;SDS011;31091;48.758;9.150;2023-05-29T15:23:16;7.22;;;3.63;;
45354;SDS011;31091;48.758;9.150;2023-05-29T15:26:02;5.55;;;3.40;;
45354;SDS011;31091;48.758;9.150;2023-05-29T15:28:48;5.25;;;3.25;;
45354;SDS011;31091;48.758;9.150;2023-05-29T15:31:33;7.45;;;3.20;;
45354;SDS011;31091;48.758;9.150;2023-05-29T15:34:18;6.28;;;3.47;;
45354;SDS011;31091;48.758;9.150;2023-05-29T15:37:03;6.93;;;3.33;;
45354;SDS011;31091;48.758;9.150;2023-05-29T15:39:49;8.65;;;3.55;;
45354;SDS011;31091;48.758;9.150;2023-05-29T15:42:34;6.32;;;3.72;;
45354;SDS011;31091;48.758;9.150;2023-05-29T15:45:19;6.93;;;3.53;;
45354;SDS011;31091;48.758;9.150;2023-05-29T15:48:05;5.10;;;3.72;;
45354;SDS011;31091;48.758;9.150;2023-05-29T15:50:50;5.50;;;3.17;;
45354;SDS011;31091;48.758;9.150;2023-05-29T15:53:35;7.53;;;3.22;;
45354;SDS011;31091;48.758;9.150;2023-05-29T15:56:21;5.60;;;3.13;;
45354;SDS011;31091;48.758;9.150;2023-05-29T15:59:13;11.57;;;3.80;;
45354;SDS011;31091;48.758;9.150;2023-05-29T16:01:58;4.93;;;3.65;;
45354;SDS011;31091;48.758;9.150;2023-05-29T16:04:44;8.32;;;3.67;;
45354;SDS011;31091;48.758;9.150;2023-05-29T16:07:29;5.68;;;2.85;;
45354;SDS011;31091;48.758;9.150;2023-05-29T16:10:14;4.55;;;2.78;;
45354;SDS011;31091;48.758;9.150;2023-05-29T16:13:02;6.93;;;3.75;;
45354;SDS011;31091;48.758;9.150;2023-05-29T16:15:47;6.43;;;3.42;;
45354;SDS011;31091;48.758;9.150;2023-05-29T16:18:33;3.90;;;2.60;;
45354;SDS011;31091;48.758;9.150;2023-05-29T16:21:18;8.45;;;3.05;;
45354;SDS011;31091;48.758;9.150;2023-05-29T16:24:04;7.18;;;3.20;;
45354;SDS011;31091;48.758;9.150;2023-05-29T16:26:49;6.35;;;3.05;;
45354;SDS011;31091;48.758;9.150;2023-05-29T16:29:34;7.22;;;3.65;;
45354;SDS011;31091;48.758;9.150;2023-05-29T16:32:19;6.07;;;3.53;;
45354;SDS011;31091;48.758;9.150;2023-05-29T16:35:05;6.88;;;3.25;;
45354;SDS011;31091;48.758;9.150;2023-05-29T16:37:51;6.20;;;3.00;;
45354;SDS011;31091;48.758;9.150;2023-05-29T16:40:37;6.22;;;3.20;;
45354;SDS011;31091;48.758;9.150;2023-05-29T16:43:22;6.18;;;2.85;;
45354;SDS011;31091;48.758;9.150;2023-05-29T16:46:08;6.78;;;3.42;;
45354;SDS011;31091;48.758;9.150;2023-05-29T16:48:54;8.02;;;2.95;;
45354;SDS011;31091;48.758;9.150;2023-05-29T16:51:39;5.93;;;3.33;;
45354;SDS011;31091;48.758;9.150;2023-05-29T16:54:24;6.30;;;3.15;;
45354;SDS011;31091;48.758;9.150;2023-05-29T16:57:09;5.63;;;3.97;;
45354;SDS011;31091;48.758;9.150;2023-05-29T16:59:55;5.15;;;3.20;;
45354;SDS011;31091;48.758;9.150;2023-05-29T17:02:40;6.78;;;3.25;;